createdAt,value
2023-02-25T00:02:20.250Z,3.90
2023-02-25T00:04:49.742Z,2.90
2023-02-25T00:07:19.087Z,2.90
2023-02-25T00:09:47.531Z,2.90
2023-02-25T00:12:16.995Z,2.90
2023-02-25T00:14:47.981Z,2.90
2023-02-25T00:37:18.814Z,2.80
2023-02-25T00:42:19.264Z,2.80
2023-02-25T00:44:51.456Z,2.90
2023-02-25T00:47:22.544Z,2.80
2023-02-25T00:49:52.374Z,2.90
2023-02-25T00:54:52.065Z,2.90
2023-02-25T00:57:21.504Z,2.90
2023-02-25T01:02:23.755Z,2.90
2023-02-25T01:04:53.213Z,2.90
2023-02-25T01:07:23.331Z,2.90
2023-02-25T01:09:56.385Z,2.90
2023-02-25T01:12:26.134Z,2.90
2023-02-25T01:14:58.850Z,2.90
2023-02-25T01:17:29.895Z,2.90
2023-02-25T01:19:59.365Z,2.90
2023-02-25T01:22:28.827Z,2.90
2023-02-25T01:27:27.028Z,2.90
2023-02-25T01:29:58.015Z,2.90
2023-02-25T01:37:29.987Z,2.90
2023-02-25T01:39:58.414Z,3.00
2023-02-25T01:42:29.197Z,3.00
2023-02-25T01:48:13.988Z,2.90
2023-02-25T01:50:50.198Z,2.90
2023-02-25T01:53:26.186Z,3.00
2023-02-25T02:08:44.646Z,3.00
2023-02-25T02:13:47.483Z,3.00
2023-02-25T02:16:40.550Z,3.00
2023-02-25T02:19:30.386Z,3.10
2023-02-25T02:22:10.351Z,3.10
2023-02-25T02:25:16.594Z,3.10
2023-02-25T02:28:24.267Z,3.10
2023-02-25T02:31:19.534Z,3.10
2023-02-25T02:34:00.727Z,3.10
2023-02-25T02:36:41.648Z,3.10
2023-02-25T02:39:25.116Z,3.20
2023-02-25T02:47:13.449Z,3.20
2023-02-25T02:49:47.522Z,3.20
2023-02-25T02:52:22.137Z,3.10
2023-02-25T02:54:58.710Z,3.10
2023-02-25T03:00:14.910Z,3.00
2023-02-25T03:02:49.080Z,3.10
2023-02-25T03:05:20.707Z,3.00
2023-02-25T03:07:57.250Z,3.00
2023-02-25T03:12:57.371Z,3.10
2023-02-25T03:15:29.595Z,3.10
2023-02-25T03:18:09.027Z,3.00
2023-02-25T03:20:42.472Z,3.00
2023-02-25T03:23:19.602Z,3.10
2023-02-25T03:25:56.292Z,3.00
2023-02-25T03:28:30.971Z,3.00
2023-02-25T03:31:07.387Z,2.90
2023-02-25T03:36:25.099Z,3.00
2023-02-25T03:38:59.221Z,3.10
2023-02-25T03:41:36.506Z,3.10
2023-02-25T03:44:09.860Z,3.10
2023-02-25T03:46:40.771Z,3.10
2023-02-25T03:49:20.264Z,3.10
2023-02-25T03:54:21.224Z,3.10
2023-02-25T03:59:27.590Z,3.20
2023-02-25T04:07:01.186Z,3.10
2023-02-25T04:12:01.844Z,3.10
2023-02-25T04:14:31.104Z,3.10
2023-02-25T04:22:00.400Z,3.10
2023-02-25T04:24:29.828Z,3.10
2023-02-25T04:29:31.430Z,3.10
2023-02-25T04:37:02.323Z,3.10
2023-02-25T04:42:02.652Z,3.10
2023-02-25T04:47:00.655Z,3.00
2023-02-25T04:49:31.331Z,3.00
2023-02-25T04:52:02.328Z,3.00
2023-02-25T04:56:59.704Z,3.00
2023-02-25T04:59:27.965Z,3.00
2023-02-25T05:01:56.189Z,3.00
2023-02-25T05:09:23.524Z,3.00
2023-02-25T05:14:24.294Z,3.00
2023-02-25T05:16:52.467Z,2.90
2023-02-25T05:19:24.308Z,2.90
2023-02-25T05:21:54.709Z,3.00
2023-02-25T05:24:26.965Z,2.90
2023-02-25T05:26:56.460Z,2.90
2023-02-25T05:34:26.209Z,2.80
2023-02-25T05:39:26.988Z,2.80
2023-02-25T05:41:55.140Z,2.80
2023-02-25T05:44:25.810Z,2.90
2023-02-25T05:49:25.446Z,2.80
2023-02-25T05:54:22.380Z,2.80
2023-02-25T05:56:54.736Z,2.80
2023-02-25T06:01:52.958Z,2.80
2023-02-25T06:06:51.880Z,2.80
2023-02-25T06:11:51.055Z,2.80
2023-02-25T06:14:22.282Z,2.80
2023-02-25T06:16:56.709Z,2.80
2023-02-25T06:19:27.771Z,2.80
2023-02-25T06:24:25.676Z,2.70
2023-02-25T06:26:53.945Z,2.60
2023-02-25T06:41:53.070Z,2.60
2023-02-25T06:44:22.550Z,2.60
2023-02-25T06:46:55.468Z,2.60
2023-02-25T06:51:53.711Z,2.70
2023-02-25T06:54:23.127Z,2.70
2023-02-25T06:59:23.517Z,2.80
2023-02-25T07:04:22.188Z,2.80
2023-02-25T07:14:19.844Z,3.00
2023-02-25T07:21:52.839Z,3.10
2023-02-25T07:29:22.107Z,3.10
2023-02-25T07:41:52.392Z,3.10
2023-02-25T07:46:51.651Z,2.90
2023-02-25T07:56:53.950Z,3.60
2023-02-25T07:59:23.590Z,3.80
2023-02-25T08:01:51.823Z,4.10
2023-02-25T08:04:23.869Z,4.40
2023-02-25T08:06:52.845Z,5.00
2023-02-25T08:14:22.853Z,5.10
2023-02-25T08:16:53.337Z,5.00
2023-02-25T08:19:24.843Z,4.80
2023-02-25T08:21:54.838Z,4.80
2023-02-25T08:24:24.794Z,4.70
2023-02-25T08:26:54.818Z,4.70
2023-02-25T08:31:54.342Z,4.70
2023-02-25T08:34:28.102Z,4.60
2023-02-25T08:36:56.313Z,4.60
2023-02-25T08:41:55.896Z,4.50
2023-02-25T08:46:58.880Z,4.80
2023-02-25T08:49:29.828Z,4.90
2023-02-25T08:51:58.113Z,4.90
2023-02-25T08:54:27.742Z,5.30
2023-02-25T08:56:57.238Z,5.50
2023-02-25T09:01:55.542Z,5.40
2023-02-25T09:04:25.523Z,5.10
2023-02-25T09:09:23.941Z,4.90
2023-02-25T09:11:54.180Z,4.80
2023-02-25T09:14:23.313Z,5.90
2023-02-25T09:16:52.009Z,4.60
2023-02-25T09:19:20.874Z,4.80
2023-02-25T09:21:50.659Z,4.70
2023-02-25T09:26:52.192Z,6.30
2023-02-25T09:29:20.459Z,7.30
2023-02-25T09:31:50.255Z,8.00
2023-02-25T09:36:51.229Z,8.90
2023-02-25T09:39:22.236Z,9.30
2023-02-25T09:41:56.831Z,9.50
2023-02-25T09:47:05.467Z,10.00
2023-02-25T09:49:40.040Z,10.30
2023-02-25T09:52:14.024Z,10.30
2023-02-25T09:54:48.781Z,9.50
2023-02-25T09:59:53.235Z,7.60
2023-02-25T10:10:40.466Z,7.70
2023-02-25T10:13:27.697Z,8.20
2023-02-25T10:19:05.069Z,9.00
2023-02-25T10:21:59.538Z,8.70
2023-02-25T10:27:19.331Z,7.00
2023-02-25T10:29:52.684Z,6.20
2023-02-25T10:32:23.741Z,5.70
2023-02-25T10:45:16.228Z,4.80
2023-02-25T10:47:52.686Z,4.90
2023-02-25T10:53:18.539Z,5.30
2023-02-25T10:55:52.915Z,5.30
2023-02-25T11:01:06.310Z,5.00
2023-02-25T11:11:30.932Z,7.60
2023-02-25T11:19:18.357Z,8.90
2023-02-25T11:24:31.937Z,7.20
2023-02-25T11:27:05.577Z,6.50
2023-02-25T11:29:41.424Z,5.90
2023-02-25T11:32:16.172Z,5.80
2023-02-25T11:34:50.764Z,5.60
2023-02-25T11:37:37.126Z,5.40
2023-02-25T11:40:25.140Z,5.70
2023-02-25T11:43:19.517Z,6.80
2023-02-25T11:45:56.148Z,8.30
2023-02-25T11:48:30.085Z,9.40
2023-02-25T11:51:10.789Z,10.30
2023-02-25T11:54:22.478Z,11.10
2023-02-25T11:56:54.274Z,11.40
2023-02-25T12:02:30.839Z,9.60
2023-02-25T12:05:37.628Z,8.60
2023-02-25T12:08:26.477Z,7.80
2023-02-25T12:11:45.027Z,7.40
2023-02-25T12:14:51.885Z,9.00
2023-02-25T12:20:50.256Z,6.00
2023-02-25T12:26:07.985Z,7.60
2023-02-25T12:31:46.355Z,7.10
2023-02-25T12:48:48.409Z,6.70
2023-02-25T12:51:51.719Z,6.00
2023-02-25T12:57:49.846Z,7.70
2023-02-25T13:00:35.217Z,8.40
2023-02-25T13:03:33.148Z,8.00
2023-02-25T13:06:37.537Z,7.10
2023-02-25T13:09:16.476Z,6.60
2023-02-25T13:14:57.787Z,6.10
2023-02-25T13:17:40.043Z,6.00
2023-02-25T13:20:36.563Z,5.90
2023-02-25T13:23:15.527Z,6.00
2023-02-25T13:28:53.748Z,6.30
2023-02-25T13:31:27.899Z,6.60
2023-02-25T13:34:14.648Z,6.40
2023-02-25T13:36:54.330Z,7.00
2023-02-25T13:39:44.814Z,7.20
2023-02-25T13:45:17.753Z,6.40
2023-02-25T13:48:06.445Z,5.90
2023-02-25T13:50:54.239Z,5.60
2023-02-25T13:53:59.555Z,5.40
2023-02-25T13:56:51.569Z,5.30
2023-02-25T13:59:56.406Z,5.30
2023-02-25T14:02:58.247Z,5.50
2023-02-25T14:11:55.620Z,6.60
2023-02-25T14:22:47.415Z,5.80
2023-02-25T14:27:57.228Z,7.40
2023-02-25T14:30:39.723Z,7.40
2023-02-25T14:33:20.809Z,7.10
2023-02-25T14:38:40.731Z,6.60
2023-02-25T14:41:23.242Z,6.10
2023-02-25T14:43:56.006Z,5.80
2023-02-25T14:46:34.857Z,5.60
2023-02-25T14:51:56.427Z,6.60
2023-02-25T14:54:48.636Z,6.50
2023-02-25T14:57:41.658Z,5.90
2023-02-25T15:00:26.381Z,5.30
2023-02-25T15:03:23.614Z,4.70
2023-02-25T15:06:02.913Z,4.80
2023-02-25T15:11:59.012Z,6.80
2023-02-25T15:15:17.119Z,8.10
2023-02-25T15:18:12.167Z,8.70
2023-02-25T15:20:41.206Z,8.10
2023-02-25T15:23:12.634Z,7.50
2023-02-25T15:25:46.884Z,6.90
2023-02-25T15:28:40.085Z,6.40
2023-02-25T15:37:37.294Z,5.80
2023-02-25T15:49:24.003Z,4.40
2023-02-25T15:51:57.076Z,4.20
2023-02-25T15:54:50.701Z,4.00
2023-02-25T15:57:38.623Z,4.30
2023-02-25T16:05:34.564Z,4.50
2023-02-25T16:08:15.330Z,4.30
2023-02-25T16:13:17.230Z,3.80
2023-02-25T16:15:49.549Z,3.60
2023-02-25T16:18:27.274Z,3.40
2023-02-25T16:21:01.622Z,3.30
2023-02-25T16:23:31.775Z,3.20
2023-02-25T16:26:07.823Z,3.40
2023-02-25T16:28:44.753Z,3.00
2023-02-25T16:31:19.527Z,2.90
2023-02-25T16:33:53.773Z,2.80
2023-02-25T16:38:59.389Z,2.70
2023-02-25T16:41:37.694Z,2.70
2023-02-25T16:44:09.292Z,2.80
2023-02-25T16:51:46.085Z,2.70
2023-02-25T16:54:18.709Z,2.60
2023-02-25T16:56:50.634Z,2.50
2023-02-25T16:59:21.629Z,2.60
2023-02-25T17:01:56.897Z,2.50
2023-02-25T17:04:31.592Z,2.50
2023-02-25T17:07:15.013Z,2.40
2023-02-25T17:09:46.805Z,2.30
2023-02-25T17:12:19.816Z,2.10
2023-02-25T17:14:50.742Z,2.00
2023-02-25T17:17:24.964Z,2.00
2023-02-25T17:19:54.989Z,1.90
2023-02-25T17:22:24.014Z,1.80
2023-02-25T17:27:24.957Z,1.50
2023-02-25T17:29:54.330Z,1.40
2023-02-25T17:32:26.969Z,1.40
2023-02-25T17:37:30.649Z,1.40
2023-02-25T17:40:10.070Z,1.30
2023-02-25T17:42:41.394Z,1.20
2023-02-25T17:45:41.866Z,1.20
2023-02-25T17:48:17.845Z,1.20
2023-02-25T17:50:53.148Z,1.20
2023-02-25T17:53:32.963Z,1.10
2023-02-25T17:56:22.668Z,1.00
2023-02-25T18:01:27.071Z,0.90
2023-02-25T18:06:41.149Z,0.80
2023-02-25T18:09:30.174Z,0.70
2023-02-25T18:12:00.877Z,0.70
2023-02-25T18:14:35.753Z,0.60
2023-02-25T18:19:46.182Z,0.50
2023-02-25T18:22:27.462Z,0.40
2023-02-25T18:24:58.768Z,0.40
2023-02-25T18:30:06.098Z,0.20
2023-02-25T18:35:04.390Z,0.40
2023-02-25T18:37:34.744Z,0.40
2023-02-25T18:40:04.539Z,0.30
2023-02-25T18:45:13.997Z,0.40
2023-02-25T18:47:43.360Z,0.30
2023-02-25T18:50:14.575Z,0.30
2023-02-25T18:52:42.851Z,0.30
2023-02-25T18:55:17.618Z,0.30
2023-02-25T18:57:47.154Z,0.20
2023-02-25T19:00:19.725Z,0.20
2023-02-25T19:02:49.935Z,0.20
2023-02-25T19:05:23.296Z,0.30
2023-02-25T19:10:23.500Z,0.20
2023-02-25T19:12:56.014Z,0.20
2023-02-25T19:15:24.150Z,0.10
2023-02-25T19:17:53.463Z,0.10
2023-02-25T19:20:24.503Z,0.10
2023-02-25T19:22:54.454Z,0.10
2023-02-25T19:25:25.542Z,-0.10
2023-02-25T19:27:55.742Z,0.40
2023-02-25T19:30:26.585Z,0.50
2023-02-25T19:33:02.353Z,0.60
2023-02-25T20:32:32.843Z,-0.10
2023-02-25T20:35:02.619Z,-0.20
2023-02-25T20:37:33.697Z,-0.10
2023-02-25T20:40:05.246Z,-0.10
2023-02-25T20:45:05.520Z,0.00
2023-02-25T20:47:36.519Z,0.10
2023-02-25T20:50:08.933Z,0.10
2023-02-25T20:52:38.366Z,0.20
2023-02-25T20:55:10.217Z,0.30
2023-02-25T20:57:39.759Z,0.40
2023-02-25T21:00:11.695Z,0.40
2023-02-25T21:02:40.912Z,0.40
2023-02-25T21:05:11.972Z,0.40
2023-02-25T21:07:39.999Z,0.50
2023-02-25T21:10:10.721Z,0.40
2023-02-25T21:12:40.490Z,0.40
2023-02-25T21:15:12.465Z,0.40
2023-02-25T21:17:40.717Z,0.40
2023-02-25T21:20:10.146Z,0.40
2023-02-25T21:22:38.416Z,0.40
2023-02-25T21:25:07.967Z,0.30
2023-02-25T21:27:35.898Z,0.20
2023-02-25T21:30:05.792Z,0.00
2023-02-25T21:35:06.610Z,-0.20
2023-02-25T21:37:34.672Z,-0.40
2023-02-25T21:40:05.368Z,-0.50
2023-02-25T21:45:05.145Z,-0.60
2023-02-25T21:47:35.942Z,-0.70
2023-02-25T21:50:05.044Z,-0.70
2023-02-25T21:52:33.038Z,-0.80
2023-02-25T21:55:02.152Z,-0.80
2023-02-25T22:00:02.990Z,-1.00
2023-02-25T22:02:41.319Z,-1.10
2023-02-25T22:05:10.108Z,-1.10
2023-02-25T22:07:39.386Z,-1.00
2023-02-25T22:10:09.116Z,-1.10
2023-02-25T22:12:38.412Z,-1.10
2023-02-25T22:15:07.222Z,-1.10
2023-02-25T22:20:08.091Z,-1.10
2023-02-25T22:22:38.141Z,-1.00
2023-02-25T22:25:06.878Z,-1.00
2023-02-25T22:27:34.800Z,-1.10
2023-02-25T22:30:03.964Z,-1.10
2023-02-25T22:32:31.982Z,-1.20
2023-02-25T22:35:01.185Z,-1.20
2023-02-25T22:37:30.407Z,-1.20
2023-02-25T22:40:00.760Z,-1.20
2023-02-25T22:42:28.722Z,-1.10
2023-02-25T22:44:57.857Z,-1.10
2023-02-25T22:47:27.221Z,-1.30
2023-02-25T22:52:25.197Z,-1.20
2023-02-25T22:54:55.706Z,-1.20
2023-02-25T22:57:24.893Z,-1.20
2023-02-25T22:59:52.882Z,-1.20
2023-02-25T23:07:18.856Z,-1.20
2023-02-25T23:09:48.139Z,-1.30
2023-02-25T23:12:19.781Z,-1.30
2023-02-25T23:17:19.344Z,-1.40
2023-02-25T23:19:48.508Z,-1.40
2023-02-25T23:22:24.894Z,-1.40
2023-02-25T23:24:52.889Z,-1.50
2023-02-25T23:27:23.395Z,-1.50
2023-02-25T23:29:53.150Z,-1.60
2023-02-25T23:32:21.060Z,-1.60
2023-02-25T23:37:17.492Z,-1.60
2023-02-25T23:39:47.081Z,-1.60
2023-02-25T23:44:47.171Z,-1.60
2023-02-25T23:47:15.195Z,-1.60
2023-02-25T23:49:45.644Z,-1.60
2023-02-25T23:52:13.882Z,-1.70
2023-02-25T23:54:44.236Z,-1.70
2023-02-25T23:57:13.412Z,-1.80
2023-02-25T23:59:42.589Z,-1.80
